CheckWX is a tool to help pilots better visualize weather data.  It is not intended as a substitute for an official pre-flight weather briefing.

20:46:33 UTC

KPTW METAR
Heritage Field Airport
Pottstown, Pennsylvania, USA
Current

53 mins ago

KPTW 291954Z AUTO 01010KT 10SM CLR 04/M08 A3008 RMK AO2 SLP185 T00441078
Observed
Jan-29 @ 19:54 UTC
Wind
  • 010° at 10 KTS
Visibility
10 SM
Flight Rules
VFR
Cloud Levels
  • Clear skies
Temperature
C / 39°F
Dewpoint
-8°C / 18°F
Humidity
42%
Altimeter
30.08" Hg
Pressure
1018.62 hPa
Previous

2 hours ago

KPTW 291854Z AUTO 35007KT 290V070 10SM CLR 04/M07 A3008 RMK AO2 SLP185 T00441067
Observed
Jan-29 @ 18:54 UTC
Wind
  • 350° at 7 KTS
Visibility
10 SM
Flight Rules
VFR
Cloud Levels
  • Clear skies
Temperature
C / 39°F
Dewpoint
-7°C / 19°F
Humidity
45%
Altimeter
30.08" Hg
Pressure
1018.62 hPa
Previous

3 hours ago

KPTW 291754Z AUTO 34010KT 10SM CLR 04/M07 A3009 RMK AO2 SLP189 T00391072 10039 20000 58007
Observed
Jan-29 @ 17:54 UTC
Wind
  • 340° at 10 KTS
Visibility
10 SM
Flight Rules
VFR
Cloud Levels
  • Clear skies
Temperature
C / 39°F
Dewpoint
-7°C / 19°F
Humidity
45%
Altimeter
30.09" Hg
Pressure
1018.92 hPa